• Join FlightAware (Why Join?)
  • Login
  • US Flag 
01:27AM EDT


 

Airport Tracker/Info


-or-


 

Live Flight TrackerFlight Track Log ✈ UAL6012 ✈ 27-Oct-2013 ✈ KIAH - MMUN / CUN

Flight Track Log - Related Links

Times and Time Zones

All times are in EDT time to prevent confusion due to time zone crossing. See the UAL6012 flight status page for this flight to view local times or setup timezone preferences in your user account.

Time Position Orientation Groundspeed Altitude Reporting Facility
EDT Latitude Longitude Course Direction KTS MPH feet Rate Location/Type
10:18AM 29.9686 -95.3461 240° Southwest 165 190  Level FlightAware ADS-B
10:18AM 29.9592 -95.3395 149° Southeast 160 184 700 2,400 Climbing FlightAware ADS-B
10:19AM 29.9513 -95.3284 129° Southeast 158 182 1,300 1,800 Climbing FlightAware ADS-B
10:19AM 29.9499 -95.3260 124° Southeast 176 203 1,300 1,080 Level FlightAware ADS-B
10:19AM 29.9403 -95.3100 125° Southeast 194 223 1,700 1,560 Climbing FlightAware ADS-B
10:19AM 29.9314 -95.2949 124° Southeast 230 265 2,200 2,400 Climbing FlightAware ADS-B
10:20AM 29.9220 -95.2796 125° Southeast 240 276 2,900 2,580 Climbing FlightAware ADS-B
10:20AM 29.9118 -95.2630 125° Southeast 261 300 3,500 1,800 Climbing FlightAware ADS-B
10:20AM 29.9008 -95.2447 125° Southeast 288 331 3,800 2,100 Climbing FlightAware ADS-B
10:20AM 29.8910 -95.2279 124° Southeast 299 344 4,500 2,820 Climbing FlightAware ADS-B
10:20AM 29.8884 -95.2235 124° Southeast 300 345 4,600 3,420 Climbing FlightAware ADS-B
10:21AM 29.8768 -95.2025 122° Southeast 303 349 5,600 4,500 Climbing FlightAware ADS-B
10:21AM 29.8748 -95.1988 122° Southeast 301 346 5,800 4,380 Climbing FlightAware ADS-B
10:21AM 29.8656 -95.1820 122° Southeast 298 343 6,700 4,380 Climbing FlightAware ADS-B
10:21AM 29.8607 -95.1728 122° Southeast 298 343 7,200 3,600 Climbing FlightAware ADS-B
10:21AM 29.8546 -95.1615 122° Southeast 299 344 7,600 2,880 Climbing FlightAware ADS-B
10:21AM 29.8436 -95.1408 121° Southeast 308 354 8,400 3,060 Climbing FlightAware ADS-B
10:22AM 29.8324 -95.1189 121° Southeast 313 360 9,200 3,060 Climbing FlightAware ADS-B
10:22AM 29.8223 -95.0993 121° Southeast 316 364 9,900 3,300 Climbing FlightAware ADS-B
10:22AM 29.8186 -95.0930 124° Southeast 314 361 10,200 4,200 Climbing FlightAware ADS-B
10:22AM 29.8136 -95.0863 131° Southeast 310 357 10,600 3,960 Climbing FlightAware ADS-B
10:22AM 29.8094 -95.0823 140° Southeast 305 351 10,800 3,300 Climbing FlightAware ADS-B
10:22AM 29.8033 -95.0776 146° Southeast 300 345 11,100 3,240 Climbing FlightAware ADS-B
10:22AM 29.7968 -95.0738 153° Southeast 299 344 11,400 4,500 Climbing FlightAware ADS-B
10:22AM 29.7914 -95.0714 159° South 298 343 11,700 4,500 Climbing FlightAware ADS-B
10:22AM 29.7909 -95.0712 164° South 298 343 11,700 2,880 Level FlightAware ADS-B
10:23AM 29.7578 -95.0599 163° South 301 346 13,000 3,120 Climbing FlightAware ADS-B
10:23AM 29.7382 -95.0523 162° South 308 354 13,700 2,760 Climbing FlightAware ADS-B
10:23AM 29.7169 -95.0440 161° South 313 360 14,400 1,920 Climbing FlightAware ADS-B
10:24AM 29.6831 -95.0306 161° South 336 387 15,000 1,740 Climbing FlightAware ADS-B
10:24AM 29.6733 -95.0267 161° South 339 390 15,300 2,400 Climbing FlightAware ADS-B
10:24AM 29.6406 -95.0139 161° South 351 404 16,200 2,160 Climbing FlightAware ADS-B
10:24AM 29.6268 -95.0085 161° South 355 409 16,400 1,980 Climbing FlightAware ADS-B
10:25AM 29.5901 -94.9940 161° South 367 422 17,200 1,980 Climbing FlightAware ADS-B
10:25AM 29.5792 -94.9897 161° South 370 426 17,400 2,580 Climbing FlightAware ADS-B
10:25AM 29.5415 -94.9748 161° South 372 428 18,500 2,880 Climbing FlightAware ADS-B
10:25AM 29.5323 -94.9712 161° South 371 427 18,800 2,400 Climbing FlightAware ADS-B
10:26AM 29.4825 -94.9515 161° South 379 436 20,000 2,160 Climbing FlightAware ADS-B
10:26AM 29.4321 -94.9317 161° South 388 447 21,000 2,040 Climbing FlightAware ADS-B
10:27AM 29.3795 -94.9109 161° South 393 452 22,100 2,160 Climbing FlightAware ADS-B
10:27AM 29.3198 -94.8875 161° South 396 456 23,400 2,160 Climbing FlightAware ADS-B
10:28AM 29.3030 -94.8805 160° South 402 463 23,700 1,800 Climbing FlightAware ADS-B
10:28AM 29.2956 -94.8767 156° South 405 466 23,800 1,800 Climbing FlightAware ADS-B
10:28AM 29.2859 -94.8704 150° Southeast 409 471 24,000 1,560 Climbing FlightAware ADS-B
10:28AM 29.2719 -94.8591 145° Southeast 417 480 24,200 840 Climbing FlightAware ADS-B
10:28AM 29.2649 -94.8518 138° Southeast 422 486 24,200 1,620 Level FlightAware ADS-B
10:28AM 29.2572 -94.8418 131° Southeast 423 487 24,500 2,220 Climbing FlightAware ADS-B
10:28AM 29.2460 -94.8236 125° Southeast 428 493 24,800 1,500 Climbing FlightAware ADS-B
10:29AM 29.2154 -94.7657 121° Southeast 440 506 25,500 1,380 Climbing FlightAware ADS-B
10:29AM 29.2046 -94.7484 126° Southeast 441 507 25,700 1,500 Climbing FlightAware ADS-B
10:29AM 29.1708 -94.7043 131° Southeast 445 512 26,400 1,680 Climbing FlightAware ADS-B
10:30AM 29.1252 -94.6521 135° Southeast 451 519 27,300 1,440 Climbing FlightAware ADS-B
10:30AM 29.0785 -94.6022 137° Southeast 461 531 27,900 1,500 Climbing FlightAware ADS-B
10:31AM 29.0316 -94.5521 137° Southeast 462 532 28,800 1,560 Climbing FlightAware ADS-B
10:31AM 28.9837 -94.5004 137° Southeast 470 541 29,500 1,140 Climbing FlightAware ADS-B
10:32AM 28.9345 -94.4478 137° Southeast 480 552 30,000 1,020 Climbing FlightAware ADS-B
10:32AM 28.8818 -94.3948 139° Southeast 490 564 30,600 960 Climbing FlightAware ADS-B
10:33AM 28.8143 -94.3196 136° Southeast 500 575 31,200 780 Climbing FlightAware ADS-B
10:34AM 28.7692 -94.2509 127° Southeast 513 590 31,600 1,200 Climbing FlightAware ADS-B
10:35AM 28.6662 -94.0962 127° Southeast 514 592 33,300 -360 Climbing FlightAware ADS-B
10:36AM 28.5850 -94.0810 171° South 496 571 30,800 -1,560 Descending FlightAware
10:36AM 28.5330 -94.0260 137° Southeast 496 571 30,800  Level FlightAware
10:37AM 28.4660 -93.9550 137° Southeast 496 571 30,800  Level FlightAware
10:38AM 28.4180 -93.9040 137° Southeast 496 571 30,800  Level FlightAware
10:39AM 28.3490 -93.8310 137° Southeast 496 571 30,800  Level FlightAware
10:39AM 28.2980 -93.7770 137° Southeast 496 571 30,800  Level FlightAware
10:40AM 28.2290 -93.7040 137° Southeast 496 571 30,800  Level FlightAware
10:41AM 28.1770 -93.6490 137° Southeast 496 571 30,800  Level FlightAware
10:41AM 28.1050 -93.5730 137° Southeast 496 571 30,800  Level FlightAware
10:42AM 28.0540 -93.5190 137° Southeast 496 571 30,800  Level FlightAware
10:43AM 28.0010 -93.4630 137° Southeast 496 571 30,800 2,100 Level FlightAware
10:44AM 27.8708 -92.9372 137° Southeast 519 597 34,900 1,800 Climbing Houston Center
10:45AM 27.7647 -92.7833 128° Southeast 518 596 35,000  Climbing Houston Center
10:46AM 27.6736 -92.6592 130° Southeast 516 594 35,000 -60 Level Houston Center
10:47AM 27.5867 -92.5317 128° Southeast 514 592 34,900  Descending Houston Center
10:48AM 27.4981 -92.4056 128° Southeast 514 592 35,000  Climbing Houston Center
10:49AM 27.4094 -92.2797 128° Southeast 513 590 35,000  Level Houston Center
10:50AM 27.3208 -92.1553 129° Southeast 512 589 35,000  Level Houston Center
10:51AM 27.2317 -92.0289 128° Southeast 514 592 35,000 -60 Level Houston Center
10:52AM 27.1117 -91.8953 135° Southeast 510 587 34,900  Descending Houston Center
10:53AM 26.9983 -91.8061 145° Southeast 502 578 35,000  Climbing Houston Center
10:55AM 26.8688 -91.7010 144° Southeast  Level FlightAware Approximate
11:02AM 26.1866 -91.1545 145° Southeast  Level FlightAware Approximate
11:03AM 26.0886 -91.0775 145° Southeast  Level FlightAware Approximate
11:04AM 25.9906 -91.0005 145° Southeast  Level FlightAware Approximate
11:05AM 25.8926 -90.9238 145° Southeast  Level FlightAware Approximate
11:06AM 25.7945 -90.8471 145° Southeast  Level FlightAware Approximate
11:07AM 25.6964 -90.7706 145° Southeast  Level FlightAware Approximate
11:08AM 25.5982 -90.6942 145° Southeast  Level FlightAware Approximate
11:09AM 25.5000 -90.6180 145° Southeast  Level FlightAware Approximate
11:10AM 25.4018 -90.5418 145° Southeast  Level FlightAware Approximate
11:11AM 25.3035 -90.4658 145° Southeast  Level FlightAware Approximate
11:12AM 25.2052 -90.3899 145° Southeast  Level FlightAware Approximate
11:13AM 25.1068 -90.3141 145° Southeast  Level FlightAware Approximate
11:14AM 25.0084 -90.2385 145° Southeast  Level FlightAware Approximate
11:15AM 24.9100 -90.1630 145° Southeast  Level FlightAware Approximate
11:16AM 24.8115 -90.0875 145° Southeast  Level FlightAware Approximate
11:17AM 24.7130 -90.0123 145° Southeast  Level FlightAware Approximate
11:18AM 24.6144 -89.9371 145° Southeast  Level FlightAware Approximate
11:19AM 24.5159 -89.8621 145° Southeast  Level FlightAware Approximate
11:19AM 24.1830 -89.6110 146° Southeast 461 531 35,000  Level FlightAware
11:20AM 24.4184 -89.7857 146° Southeast  Level FlightAware Approximate
11:21AM 24.0510 -89.5110 145° Southeast 461 531 35,000  Level FlightAware
11:21AM 23.9820 -89.4590 145° Southeast 460 529 35,000  Level FlightAware
11:22AM 23.9100 -89.4050 146° Southeast 459 528 35,000  Level FlightAware
11:23AM 23.8320 -89.3460 145° Southeast 459 528 35,000  Level FlightAware
11:23AM 23.7700 -89.3000 146° Southeast 459 528 35,000  Level FlightAware
11:24AM 23.7010 -89.2480 145° Southeast 459 528 35,000  Level FlightAware
11:24AM 23.6180 -89.1850 145° Southeast 457 526 35,000  Level FlightAware
11:25AM 23.5630 -89.1440 146° Southeast 457 526 35,000  Level FlightAware
11:26AM 23.4850 -89.0860 146° Southeast 456 525 35,000  Level FlightAware
11:27AM 23.4190 -89.0370 146° Southeast 455 524 35,000  Level FlightAware
11:27AM 23.3110 -88.9560 145° Southeast 452 520 35,000  Level FlightAware
11:29AM 23.1730 -88.8530 146° Southeast 453 521 35,000  Level FlightAware
11:29AM 23.1050 -88.8030 146° Southeast 454 522 35,000  Level FlightAware
11:30AM 23.0350 -88.7520 146° Southeast 455 524 35,000  Level FlightAware
11:31AM 22.9750 -88.7070 145° Southeast 455 524 35,000  Level FlightAware
11:31AM 22.8980 -88.6500 146° Southeast 456 525 35,000  Level FlightAware
11:32AM 22.8580 -88.6210 146° Southeast 456 525 35,000  Level FlightAware
11:32AM 22.7930 -88.5730 146° Southeast 457 526 35,000  Level FlightAware
11:33AM 22.7430 -88.5360 146° Southeast 457 526 35,000  Level FlightAware
11:33AM 22.6820 -88.4910 146° Southeast 457 526 35,000  Level FlightAware
11:35AM 22.5660 -88.4060 146° Southeast 456 525 35,000 -120 Level FlightAware
11:35AM 22.4960 -88.3540 146° Southeast 436 502 34,800 -660 Descending FlightAware
11:35AM 22.4720 -88.3370 147° Southeast 433 498 34,400 -2,640 Descending FlightAware
11:36AM 22.3750 -88.2660 146° Southeast 443 510 31,700 -2,880 Descending FlightAware
11:37AM 22.3040 -88.2140 146° Southeast 447 514 29,700 -2,040 Descending FlightAware
11:37AM 22.2960 -88.2090 150° Southeast 447 514 29,500 -2,340 Descending FlightAware
11:38AM 22.1720 -88.1140 145° Southeast 440 506 26,700 -2,700 Descending FlightAware
11:39AM 22.1080 -88.0500 137° Southeast 430 495 25,100 -2,220 Descending FlightAware
11:40AM 22.0380 -87.9780 136° Southeast 420 483 23,300 -2,280 Descending FlightAware
11:40AM 21.9940 -87.9330 137° Southeast 413 475 22,100 -1,680 Descending FlightAware
11:41AM 21.9640 -87.9020 136° Southeast 408 470 21,400 -1,680 Descending FlightAware
11:42AM 21.9100 -87.8470 137° Southeast 402 463 20,000 -2,160 Descending FlightAware
11:42AM 21.8540 -87.7900 137° Southeast 396 456 18,500 -2,580 Descending FlightAware
11:43AM 21.7800 -87.7140 136° Southeast 381 438 16,500 -2,640 Descending FlightAware
11:44AM 21.7310 -87.6650 137° Southeast 375 432 15,100 -2,040 Descending FlightAware
11:44AM 21.7010 -87.6350 137° Southeast 372 428 14,400 -2,040 Descending FlightAware
11:45AM 21.6610 -87.5940 136° Southeast 357 411 13,200 -1,680 Descending FlightAware
11:45AM 21.6200 -87.5520 136° Southeast 328 377 12,500 -1,020 Descending FlightAware
11:46AM 21.5810 -87.5130 137° Southeast 302 348 12,000 -1,200 Descending FlightAware
11:46AM 21.5490 -87.4800 136° Southeast 295 339 11,200 -1,440 Descending FlightAware
11:47AM 21.5060 -87.4370 137° Southeast 287 330 10,200 -1,260 Descending FlightAware
11:48AM 21.4650 -87.3960 137° Southeast 271 312 9,400 -1,260 Descending FlightAware
11:49AM 21.4200 -87.3500 136° Southeast 265 305 8,300 -1,140 Descending FlightAware
11:49AM 21.3840 -87.3140 137° Southeast 269 310 7,700 -1,020 Descending FlightAware
11:50AM 21.3510 -87.2810 137° Southeast 266 306 7,000 -1,320 Descending FlightAware
11:51AM 21.3210 -87.2500 136° Southeast 261 300 6,200 -1,380 Descending FlightAware
11:51AM 21.2910 -87.2200 137° Southeast 257 296 5,500 -1,260 Descending FlightAware
11:52AM 21.2620 -87.1910 137° Southeast 254 292 4,800 -1,320 Descending FlightAware
11:52AM 21.2300 -87.1590 137° Southeast 250 288 4,000 -780 Descending FlightAware
11:53AM 21.2070 -87.1250 126° Southeast 241 277 3,900  Descending FlightAware
11:54AM 21.1800 -87.0810 123° Southeast 202 232 4,000 -180 Climbing FlightAware
11:54AM 21.1630 -87.0540 124° Southeast 173 199 3,700 -720 Descending FlightAware
11:55AM 21.1470 -87.0290 124° Southeast 166 191 3,200 -840 Descending FlightAware
11:55AM 21.1320 -87.0050 124° Southeast 162 186 2,700 -900 Descending FlightAware
11:56AM 21.1160 -86.9800 124° Southeast 159 183 2,100 -900 Descending FlightAware
11:57AM 21.0990 -86.9520 123° Southeast 145 167 1,500 -840 Descending FlightAware
11:57AM 21.0880 -86.9350 125° Southeast 157 181 1,100 -660 Descending FlightAware
11:58AM 21.0770 -86.9180 125° Southeast 156 180 800 -720 Descending FlightAware
11:59AM 21.0610 -86.8920 123° Southeast 156 180 200 -900 Descending FlightAware
11:59AM 21.0560 -86.8830 121° Southeast 156 180 -900 Descending FlightAware
11:59AM 21.0480 -86.8700 123° Southeast 156 180  Level FlightAware
12:03PM 21.0365 -86.8771 137° Southeast  Level Estimated
12:04PM 21.0365 -86.8771 137° Southeast  Level Estimated
12:05PM 21.0365 -86.8771 137° Southeast  Level Estimated
12:06PM 21.0365 -86.8771 137° Southeast  Level Estimated
12:07PM 21.0365 -86.8771 137° Southeast  Level Estimated
12:08PM 21.0365 -86.8771 137° Southeast  Level Estimated
12:09PM 21.0365 -86.8771 137° Southeast  Level Estimated
12:10PM 21.0365 -86.8771 137° Southeast  Level Estimated
12:11PM 21.0365 -86.8771 137° Southeast  Level Estimated
12:12PM 21.0365 -86.8771 137° Southeast  Level Estimated
12:13PM 21.0365 -86.8771 137° Southeast  Level Estimated